Time;durP1;ratioP1;P1;durP2;ratioP2;P2;SDS_P1;SDS_P2;PMS_P1;PMS_P2;Temp;Humidity;BMP_temperature;BMP_pressure;BME280_temperature;BME280_humidity;BME280_pressure;Samples;Min_cycle;Max_cycle;Signal;HPM_P1;HPM_P2
2021/11/01 00:00:35;;;;;;;31.90;25.13;;;9.00;76.40;;;7.49;80.98;94882.16;4990248;28;20533;-63
2021/11/01 00:03:00;;;;;;;27.45;23.40;;;9.00;76.40;;;7.45;81.07;94880.94;4990693;28;20501;-63
2021/11/01 00:05:26;;;;;;;31.33;24.40;;;9.00;76.20;;;7.42;80.94;94876.09;4990606;28;20049;-63
2021/11/01 00:07:53;;;;;;;34.80;27.83;;;8.90;76.10;;;7.40;80.60;94875.50;4986427;28;20035;-64
2021/11/01 00:10:19;;;;;;;32.00;26.92;;;8.90;76.00;;;7.38;80.75;94881.72;4990254;28;20033;-63
2021/11/01 00:12:45;;;;;;;29.08;24.40;;;8.90;75.80;;;7.33;80.87;94883.34;4990452;28;20125;-63
2021/11/01 00:15:11;;;;;;;26.85;23.35;;;8.80;75.50;;;7.28;80.34;94881.31;5006734;28;20037;-63
2021/11/01 00:17:37;;;;;;;28.33;22.85;;;8.80;75.60;;;7.24;80.39;94874.03;4990573;28;20088;-63
2021/11/01 00:20:05;;;;;;;30.05;23.90;;;8.70;75.50;;;7.21;80.61;94869.22;4986905;28;20100;-63
2021/11/01 00:22:32;;;;;;;26.65;23.20;;;8.80;75.70;;;7.22;80.26;94873.44;4988416;28;20041;-62
2021/11/01 00:24:58;;;;;;;27.75;23.92;;;8.80;75.60;;;7.18;81.29;94862.56;4974310;28;20038;-63
2021/11/01 00:27:23;;;;;;;29.50;24.33;;;8.70;75.80;;;7.16;81.31;94861.97;4990330;28;20048;-63
2021/11/01 00:29:49;;;;;;;27.23;23.48;;;8.70;76.00;;;7.14;81.17;94858.75;4989131;28;20034;-62
2021/11/01 00:32:15;;;;;;;26.83;22.52;;;8.70;76.10;;;7.10;81.82;94852.31;5022873;28;20053;-63
2021/11/01 00:34:42;;;;;;;28.73;23.02;;;8.70;76.20;;;7.11;81.56;94853.91;4990352;28;20042;-63
2021/11/01 00:37:09;;;;;;;26.52;22.02;;;8.70;76.60;;;7.13;81.89;94854.53;4974480;28;20505;-63
2021/11/01 00:39:35;;;;;;;28.60;22.60;;;8.80;77.20;;;7.16;83.28;94851.50;4990527;28;20044;-63
2021/11/01 00:42:01;;;;;;;28.77;23.02;;;8.80;78.10;;;7.19;82.84;94852.91;4987817;28;20057;-63
2021/11/01 00:44:27;;;;;;;29.52;23.77;;;8.80;78.30;;;7.17;83.74;94855.72;4989517;28;20030;-63
2021/11/01 00:46:52;;;;;;;30.60;25.15;;;8.80;78.50;;;7.17;84.00;94842.66;4973567;28;20034;-63
2021/11/01 00:49:18;;;;;;;28.77;23.75;;;8.80;78.30;;;7.17;83.32;94837.44;4998644;28;20158;-63
2021/11/01 00:51:44;;;;;;;28.98;24.33;;;8.80;78.10;;;7.18;83.74;94841.66;4976493;28;20034;-63
2021/11/01 00:54:12;;;;;;;26.98;23.33;;;8.70;78.10;;;7.16;83.79;94843.66;4994304;28;20464;-63
2021/11/01 00:56:38;;;;;;;30.98;23.73;;;8.70;78.00;;;7.16;83.35;94835.81;4977947;28;20043;-63
2021/11/01 00:59:04;;;;;;;29.05;23.25;;;8.80;77.60;;;7.15;83.74;94843.88;4968910;28;20108;-63
2021/11/01 01:01:32;;;;;;;27.23;22.25;;;8.80;77.70;;;7.15;83.37;94843.88;4993418;28;20030;-63
2021/11/01 01:03:58;;;;;;;27.27;22.95;;;8.70;77.40;;;7.14;82.79;94831.78;4974050;28;20045;-63
2021/11/01 01:06:24;;;;;;;28.00;21.80;;;8.70;77.30;;;7.12;83.05;94836.41;4990175;28;20049;-63
2021/11/01 01:08:50;;;;;;;29.98;23.70;;;8.70;77.30;;;7.09;82.78;94829.78;4990225;28;20030;-63
2021/11/01 01:11:16;;;;;;;29.30;22.20;;;8.60;76.60;;;7.06;82.43;94827.56;5009946;28;20480;-63
2021/11/01 01:13:41;;;;;;;27.27;22.33;;;8.60;77.00;;;7.04;82.92;94834.81;5008668;28;20084;-63
2021/11/01 01:16:12;;;;;;;28.90;23.02;;;8.60;77.00;;;7.01;82.25;94827.34;4990107;28;20135;-63
2021/11/01 01:18:39;;;;;;;30.20;25.33;;;8.60;77.10;;;6.98;82.57;94832.97;4975014;28;20097;-63
2021/11/01 01:23:50;;;;;;;27.75;23.02;;;8.60;77.20;;;6.93;82.98;94824.91;4995297;28;20060;-63
2021/11/01 01:26:16;;;;;;;25.50;22.33;;;8.50;77.30;;;6.90;82.92;94820.09;4988852;28;20038;-63
2021/11/01 01:28:43;;;;;;;29.77;21.75;;;8.50;77.40;;;6.89;82.39;94823.69;5008826;28;20088;-63
2021/11/01 01:31:09;;;;;;;27.65;21.98;;;8.50;77.20;;;6.88;82.66;94824.69;4977171;28;20085;-63
2021/11/01 01:33:35;;;;;;;29.15;22.35;;;8.50;77.40;;;6.86;82.55;94818.88;5000803;28;20041;-63
2021/11/01 01:36:00;;;;;;;28.10;23.33;;;8.40;77.20;;;6.80;82.63;94820.47;5009070;28;20124;-63
2021/11/01 01:38:26;;;;;;;26.50;21.83;;;8.30;76.80;;;6.76;82.62;94817.41;5009306;28;20103;-63
2021/11/01 01:40:54;;;;;;;25.48;21.95;;;8.30;77.30;;;6.73;82.66;94814.41;4992753;28;20509;-62
2021/11/01 01:43:20;;;;;;;28.70;22.00;;;8.20;77.50;;;6.70;82.97;94812.19;4992910;28;20042;-63
2021/11/01 01:45:46;;;;;;;27.73;21.25;;;8.20;77.60;;;6.65;83.21;94810.16;4988426;28;20034;-63
2021/11/01 01:48:13;;;;;;;29.10;22.15;;;8.20;77.40;;;6.61;83.21;94808.94;4992086;28;20030;-63
2021/11/01 01:50:39;;;;;;;26.90;20.30;;;8.20;77.40;;;6.57;83.27;94807.72;5009031;28;20048;-63
2021/11/01 01:53:05;;;;;;;26.35;22.08;;;8.20;77.30;;;6.56;83.41;94819.16;4992279;28;20045;-63
2021/11/01 01:55:31;;;;;;;25.70;21.60;;;8.20;77.70;;;6.55;83.34;94809.72;5008625;28;20160;-63
2021/11/01 01:57:57;;;;;;;25.40;21.05;;;8.20;77.70;;;6.54;83.49;94807.28;4992442;28;20482;-63
2021/11/01 02:00:46;;;;;;;26.42;22.05;;;8.10;77.60;;;6.51;83.73;94816.31;4992258;28;20057;-63
2021/11/01 02:03:12;;;;;;;27.38;21.95;;;8.20;77.80;;;6.50;82.91;94800.84;4969562;28;20109;-63
2021/11/01 02:06:15;;;;;;;26.92;21.80;;;8.10;77.90;;;6.52;85.11;94817.94;5008467;28;20057;-63
2021/11/01 02:09:04;;;;;;;28.35;20.52;;;8.20;78.30;;;6.53;85.38;94806.50;5000831;28;20049;-63
2021/11/01 02:11:49;;;;;;;27.67;22.17;;;8.20;78.60;;;6.53;85.99;94806.50;4962035;28;20506;-63
2021/11/01 02:14:18;;;;;;;34.42;27.15;;;8.10;79.30;;;6.50;84.85;94819.94;4973060;28;20140;-63
2021/11/01 02:16:43;;;;;;;32.25;27.90;;;8.10;79.30;;;6.47;84.66;94816.91;4960975;28;20022;-63
2021/11/01 02:19:10;;;;;;;34.33;25.05;;;8.10;79.10;;;6.44;84.33;94810.28;4975057;28;20117;-63
2021/11/01 02:21:48;;;;;;;34.47;26.65;;;8.10;78.60;;;6.40;85.62;94806.47;4976609;28;20710;-63
2021/11/01 02:24:32;;;;;;;31.95;24.80;;;8.00;78.40;;;6.37;85.12;94810.25;4988672;28;20026;-63
2021/11/01 02:26:58;;;;;;;34.97;27.90;;;7.90;78.70;;;6.34;84.47;94809.84;5006896;28;20041;-63
2021/11/01 02:29:26;;;;;;;35.15;26.88;;;8.00;78.80;;;6.33;84.98;94803.78;4976416;28;20576;-63
2021/11/01 02:31:52;;;;;;;31.90;26.92;;;7.90;79.00;;;6.31;85.50;94799.75;4973402;28;20230;-63
2021/11/01 02:34:19;;;;;;;34.00;26.25;;;7.90;79.20;;;6.33;85.51;94803.00;4989480;28;20026;-63
2021/11/01 02:36:45;;;;;;;32.95;28.35;;;8.00;79.20;;;6.34;85.80;94794.19;4988994;28;20037;-63
2021/11/01 02:39:11;;;;;;;37.38;27.65;;;8.00;79.30;;;6.34;85.36;94794.19;4992331;28;20033;-63
2021/11/01 02:41:37;;;;;;;36.75;30.55;;;8.00;79.30;;;6.32;85.79;94793.53;4992907;28;20137;-63
2021/11/01 02:44:06;;;;;;;36.83;29.02;;;7.90;79.40;;;6.32;85.92;94791.72;5007607;28;20034;-63
2021/11/01 02:46:32;;;;;;;34.63;27.60;;;8.00;79.40;;;6.33;85.45;94771.66;5007694;28;20045;-63
2021/11/01 02:48:58;;;;;;;35.72;28.75;;;8.00;79.00;;;6.33;85.44;94771.66;4991805;28;20049;-63
2021/11/01 02:51:25;;;;;;;37.05;27.30;;;8.00;78.80;;;6.34;85.49;94773.28;5008953;28;20440;-63
2021/11/01 02:53:51;;;;;;;31.52;25.92;;;8.00;78.50;;;6.31;84.53;94773.66;4992214;28;20076;-63
2021/11/01 02:56:17;;;;;;;33.70;27.30;;;8.00;78.00;;;6.30;85.06;94779.88;4989358;28;20038;-62
2021/11/01 02:58:43;;;;;;;34.83;28.38;;;7.90;78.10;;;6.29;84.98;94775.66;4989076;28;20117;-63
2021/11/01 03:01:10;;;;;;;33.97;27.98;;;8.00;78.70;;;6.30;85.14;94769.44;4966100;28;20030;-63
2021/11/01 03:03:37;;;;;;;37.17;28.38;;;8.00;79.00;;;6.28;85.27;94766.22;4991919;28;20026;-63
2021/11/01 03:06:03;;;;;;;37.85;30.15;;;7.90;79.30;;;6.27;85.99;94773.25;4975809;28;20026;-63
2021/11/01 03:08:29;;;;;;;35.55;26.55;;;7.90;79.50;;;6.28;85.67;94766.22;4991756;28;20528;-63
2021/11/01 03:10:55;;;;;;;35.10;28.90;;;7.90;79.60;;;6.30;85.87;94756.38;4962590;28;20506;-63
2021/11/01 03:13:23;;;;;;;40.75;29.00;;;7.90;79.80;;;6.27;86.43;94762.00;4957952;28;20038;-63
2021/11/01 03:15:49;;;;;;;39.08;31.38;;;7.90;80.30;;;6.26;87.04;94760.38;4983482;28;20044;-63
2021/11/01 03:18:15;;;;;;;39.25;30.60;;;7.90;80.30;;;6.27;87.19;94757.56;4991725;28;20509;-63
2021/11/01 03:20:43;;;;;;;36.30;29.48;;;7.90;80.50;;;6.24;86.54;94746.72;4992414;28;20607;-63
2021/11/01 03:23:16;;;;;;;37.22;31.10;;;7.80;80.50;;;6.22;86.91;94744.31;4991621;28;20033;-63
2021/11/01 03:26:06;;;;;;;37.80;29.38;;;7.80;80.50;;;6.21;87.92;94739.28;4985055;28;20528;-63
2021/11/01 03:28:32;;;;;;;38.42;32.08;;;7.80;80.30;;;6.16;86.86;94739.88;4974520;28;20049;-63
2021/11/01 03:30:59;;;;;;;41.20;30.13;;;7.70;80.40;;;6.12;87.33;94749.91;4990663;28;20057;-63
2021/11/01 03:33:27;;;;;;;38.83;31.13;;;7.70;80.40;;;6.08;86.85;94740.81;4991854;28;20046;-63
2021/11/01 03:35:54;;;;;;;42.25;29.92;;;7.60;80.20;;;6.04;86.45;94737.00;4972811;28;20037;-63
2021/11/01 03:38:21;;;;;;;36.47;30.25;;;7.60;80.20;;;6.00;86.74;94727.16;4974778;28;20038;-63
2021/11/01 03:40:47;;;;;;;37.92;27.73;;;7.60;80.40;;;5.98;86.88;94734.38;4991895;28;20040;-63
2021/11/01 03:43:26;;;;;;;36.92;30.05;;;7.60;80.40;;;5.98;86.83;94732.56;4991674;28;20026;-63
2021/11/01 03:45:52;;;;;;;34.60;26.17;;;7.60;80.30;;;6.00;86.73;94727.94;4973287;28;20042;-63
2021/11/01 03:48:21;;;;;;;32.72;27.90;;;7.60;80.30;;;6.03;86.73;94731.97;4991489;28;20592;-63
2021/11/01 03:50:56;;;;;;;35.67;26.13;;;7.60;79.90;;;6.03;86.34;94735.38;4973004;28;20076;-63
2021/11/01 03:53:23;;;;;;;32.85;26.25;;;7.60;79.90;;;5.99;86.34;94734.16;4993727;28;20070;-63
2021/11/01 03:55:48;;;;;;;33.00;25.75;;;7.60;79.60;;;5.95;86.85;94717.28;4975238;28;20026;-63
2021/11/01 03:58:14;;;;;;;29.00;21.85;;;7.60;79.90;;;5.94;86.83;94717.50;4991211;28;20044;-63
2021/11/01 04:00:40;;;;;;;28.10;22.50;;;7.60;80.90;;;5.97;88.37;94719.72;4957449;28;20125;-63
2021/11/01 04:03:06;;;;;;;25.85;20.40;;;7.70;81.00;;;6.00;88.05;94724.53;4991483;28;20113;-63
2021/11/01 04:05:32;;;;;;;23.38;18.83;;;7.70;81.10;;;6.01;88.06;94716.50;4975554;28;20034;-63
2021/11/01 04:07:58;;;;;;;23.52;19.00;;;7.70;81.30;;;6.04;88.34;94716.13;4990969;28;20038;-63
2021/11/01 04:10:24;;;;;;;24.50;16.98;;;7.80;81.20;;;6.09;88.10;94716.34;4975385;28;20054;-63
2021/11/01 04:12:50;;;;;;;22.33;18.52;;;7.80;81.10;;;6.10;88.01;94717.13;4975890;28;20049;-63
2021/11/01 04:15:26;;;;;;;22.92;17.25;;;7.80;80.60;;;6.11;88.06;94714.34;4974773;28;20499;-63
2021/11/01 04:18:02;;;;;;;19.95;17.77;;;7.90;80.10;;;6.13;87.55;94716.78;4981354;28;20535;-63
2021/11/01 04:20:37;;;;;;;22.13;16.45;;;7.90;79.80;;;6.13;87.40;94717.56;5004960;28;20046;-63
2021/11/01 04:23:06;;;;;;;19.55;16.92;;;7.90;79.50;;;6.12;87.36;94729.03;5011753;28;20037;-63
2021/11/01 04:25:32;;;;;;;24.33;16.40;;;7.80;79.10;;;6.10;86.16;94731.00;4995752;28;20107;-63
2021/11/01 04:28:00;;;;;;;23.33;17.63;;;7.80;78.80;;;6.06;85.98;94732.38;5011108;28;20451;-63
2021/11/01 04:30:30;;;;;;;19.58;17.10;;;7.70;78.70;;;6.01;86.41;94732.16;5007440;28;20045;-62
2021/11/01 04:33:00;;;;;;;19.65;14.77;;;7.60;79.00;;;5.97;86.02;94735.38;4994841;28;20120;-63
2021/11/01 04:35:28;;;;;;;20.03;16.10;;;7.60;79.30;;;5.93;86.65;94740.19;5010158;28;20073;-63
2021/11/01 04:53:58;;;;;;;26.58;19.25;;;7.30;78.80;;;5.62;85.42;94742.34;4982079;28;20661;-63
2021/11/01 04:56:25;;;;;;;27.38;21.33;;;7.40;78.90;;;5.61;85.57;94746.78;4994448;28;20065;-63
2021/11/01 04:58:53;;;;;;;24.98;19.25;;;7.30;78.90;;;5.59;86.03;94743.56;4978292;28;20114;-63
2021/11/01 05:01:59;;;;;;;27.10;20.50;;;7.20;78.70;;;5.57;85.98;94744.75;4994679;28;20065;-63
2021/11/01 05:04:22;;;;;;;26.17;19.55;;;7.20;78.50;;;5.52;85.09;94742.72;4988433;28;20041;-67
2021/11/01 05:06:52;;;;;;;28.90;20.42;;;7.20;78.50;;;5.46;85.92;94733.84;4970933;28;20573;-67
2021/11/01 05:09:25;;;;;;;28.33;20.70;;;7.10;78.90;;;5.39;85.90;94743.41;4994100;28;20037;-64
2021/11/01 05:14:17;;;;;;;24.02;21.38;;;7.10;79.20;;;5.35;86.18;94746.59;5009682;28;20069;-65
2021/11/01 05:19:22;;;;;;;25.73;18.58;;;7.10;79.60;;;5.35;86.61;94742.19;4992049;28;20678;-64
2021/11/01 05:24:57;;;;;;;23.63;19.05;;;7.10;80.30;;;5.39;87.46;94746.03;5010086;28;20042;-65
2021/11/01 05:30:06;;;;;;;22.33;17.48;;;7.10;80.40;;;5.43;86.83;94746.44;4994216;28;20030;-64
2021/11/01 05:32:33;;;;;;;34.05;24.63;;;7.20;80.00;;;5.42;86.93;94750.84;4983559;28;20045;-64
2021/11/01 05:34:59;;;;;;;23.80;19.58;;;7.10;79.90;;;5.42;87.07;94753.47;5005575;28;20034;-64
2021/11/01 05:37:25;;;;;;;23.20;18.13;;;7.10;79.40;;;5.41;86.29;94757.06;4989989;28;20386;-65
2021/11/01 05:39:50;;;;;;;21.17;16.92;;;7.10;79.20;;;5.39;86.70;94769.47;4982865;28;20045;-65
2021/11/01 05:42:16;;;;;;;24.48;19.15;;;7.10;79.50;;;5.33;86.20;94759.81;4992922;28;20030;-65
2021/11/01 05:44:42;;;;;;;28.23;21.08;;;7.10;79.50;;;5.33;86.36;94772.84;5002741;28;20446;-65
2021/11/01 05:47:09;;;;;;;26.42;19.67;;;7.10;79.40;;;5.33;86.26;94779.88;4977128;28;20034;-64
2021/11/01 05:49:38;;;;;;;26.23;20.17;;;7.00;79.10;;;5.30;85.79;94786.28;4993597;28;20065;-64
2021/11/01 05:52:07;;;;;;;27.17;20.65;;;7.00;78.80;;;5.29;85.81;94786.47;4974458;28;20034;-64
2021/11/01 05:54:33;;;;;;;26.75;20.73;;;7.00;79.00;;;5.24;85.40;94787.03;4999664;28;20564;-65
2021/11/01 05:57:08;;;;;;;29.20;23.80;;;6.90;79.30;;;5.23;85.75;94775.81;4993012;28;20069;-64
2021/11/01 06:00:20;;;;;;;30.75;21.52;;;7.00;79.40;;;5.22;86.82;94786.41;4985353;28;20042;-65
2021/11/01 06:02:36;;;;;;;29.08;21.75;;;7.00;79.60;;;5.24;87.21;94787.03;4971178;28;20326;-65
2021/11/01 06:07:41;;;;;;;29.35;21.63;;;7.10;80.30;;;5.33;87.43;94805.94;5010600;28;20395;-65
2021/11/01 06:10:25;;;;;;;31.00;23.10;;;7.10;80.20;;;5.35;87.97;94807.38;4994277;28;20045;-64
2021/11/01 06:15:35;;;;;;;33.75;25.60;;;7.20;80.30;;;5.43;87.98;94811.63;5009083;28;20125;-66
2021/11/01 06:18:01;;;;;;;36.10;26.10;;;7.30;80.80;;;5.48;88.72;94827.53;4986245;28;20030;-65
2021/11/01 06:20:27;;;;;;;32.50;23.90;;;7.40;80.90;;;5.53;88.28;94833.78;4980613;28;20045;-65
2021/11/01 06:22:53;;;;;;;30.90;24.80;;;7.40;81.00;;;5.62;89.08;94836.25;5009631;28;20038;-66
2021/11/01 06:25:19;;;;;;;28.13;21.48;;;7.60;80.80;;;5.70;88.83;94846.56;5009676;28;20046;-65
2021/11/01 06:27:46;;;;;;;25.38;21.70;;;7.60;80.90;;;5.76;89.30;94854.44;4991581;28;20034;-66
2021/11/01 06:40:58;;;;;;;24.70;20.88;;;8.00;80.10;;;6.11;89.19;94894.47;4994708;28;20092;-66
2021/11/01 06:43:31;;;;;;;25.45;18.88;;;7.90;80.60;;;6.15;89.25;94897.50;4992840;28;20054;-65
2021/11/01 07:16:06;;;;;;;18.85;16.23;;;9.60;80.20;;;7.64;91.86;94942.94;5008133;28;20045;-67
2021/11/01 07:18:38;;;;;;;14.48;12.95;;;9.80;80.10;;;7.76;91.51;94951.84;4992497;28;20044;-67
2021/11/01 07:21:19;;;;;;;14.88;12.77;;;9.90;79.70;;;7.86;91.17;94956.69;4974133;28;20042;-66
2021/11/01 08:30:03;;;;;;;9.82;7.45;;;12.60;75.50;;;10.40;87.69;94964.06;4996898;28;20068;-68
2021/11/01 08:40:39;;;;;;;8.93;7.10;;;12.80;74.10;;;10.67;85.80;94971.75;4990177;28;20502;-68
2021/11/01 08:51:03;;;;;;;7.82;6.68;;;12.60;73.60;;;10.71;84.93;94984.22;4978648;28;20069;-68
2021/11/01 09:06:58;;;;;;;6.60;5.55;;;12.90;71.40;;;10.92;82.28;94998.81;4994309;28;20034;-67
2021/11/01 09:20:15;;;;;;;8.05;6.00;;;12.90;72.40;;;10.88;81.87;95005.53;4993326;28;20025;-68
2021/11/01 09:28:45;;;;;;;8.18;6.22;;;12.70;71.90;;;10.83;81.62;95007.19;4995567;28;20502;-66
2021/11/01 09:36:44;;;;;;;9.27;6.93;;;12.60;72.20;;;10.77;82.32;95024.63;4980676;28;20532;-66
2021/11/01 09:41:56;;;;;;;6.95;5.70;;;12.60;72.60;;;10.74;82.26;95035.59;5009024;28;20091;-65
2021/11/01 09:44:25;;;;;;;6.38;4.70;;;12.60;72.60;;;10.71;80.70;95038.66;4974288;28;20077;-66
2021/11/01 09:46:56;;;;;;;7.55;4.40;;;12.40;72.40;;;10.69;81.25;95040.69;4978167;28;20125;-65
2021/11/01 09:49:22;;;;;;;5.68;4.15;;;12.40;72.60;;;10.66;80.91;95043.75;4992232;28;20070;-65
2021/11/01 09:51:51;;;;;;;6.25;4.32;;;12.40;72.70;;;10.65;80.50;95053.47;5008810;28;20068;-65
2021/11/01 09:54:24;;;;;;;5.03;3.67;;;12.40;72.40;;;10.62;80.62;95053.06;4992001;28;20573;-66
2021/11/01 09:57:01;;;;;;;4.38;3.33;;;12.30;72.40;;;10.59;81.02;95054.31;4978008;28;20126;-64
2021/11/01 09:59:34;;;;;;;6.97;3.50;;;12.20;72.30;;;10.59;80.70;95061.41;4975916;28;20029;-66
2021/11/01 10:02:00;;;;;;;4.43;3.25;;;12.40;72.20;;;10.57;81.00;95058.19;5006905;28;20032;-65
2021/11/01 10:04:31;;;;;;;6.43;3.80;;;12.30;72.20;;;10.56;80.62;95056.56;4976071;28;20038;-67
2021/11/01 10:07:33;;;;;;;9.38;6.75;;;12.40;72.10;;;10.57;80.92;95066.06;4973834;28;20026;-65
2021/11/01 10:10:11;;;;;;;7.57;4.45;;;12.30;72.10;;;10.54;80.19;95066.50;4962676;28;20030;-66
2021/11/01 10:12:38;;;;;;;4.15;3.47;;;12.30;72.30;;;10.53;81.14;95070.16;4990915;28;20116;-66
2021/11/01 10:18:04;;;;;;;10.32;7.13;;;12.30;72.20;;;10.53;79.93;95062.25;5003914;28;20032;-66
2021/11/01 10:20:32;;;;;;;4.45;2.95;;;12.40;72.20;;;10.50;80.88;95060.88;4991894;28;20030;-66
2021/11/01 10:22:57;;;;;;;4.50;3.05;;;12.20;72.40;;;10.50;80.32;95060.06;4992352;28;20029;-65
2021/11/01 10:25:24;;;;;;;4.18;2.65;;;12.20;73.00;;;10.50;80.45;95066.13;4972707;28;20185;-64
2021/11/01 10:27:57;;;;;;;5.50;3.22;;;12.30;73.00;;;10.50;80.65;95065.31;4973445;28;20391;-66
2021/11/01 10:30:27;;;;;;;4.60;2.78;;;12.30;73.00;;;10.48;81.46;95062.09;4989906;28;20521;-66
2021/11/01 10:32:53;;;;;;;4.68;3.00;;;12.30;73.20;;;10.46;81.98;95069.41;4971833;28;20184;-65
2021/11/01 10:35:21;;;;;;;5.07;3.13;;;12.30;73.50;;;10.45;81.46;95067.78;4988748;28;20042;-65
2021/11/01 10:38:00;;;;;;;6.10;3.20;;;12.20;74.30;;;10.41;81.76;95065.59;5000760;28;20137;-65
2021/11/01 10:40:28;;;;;;;4.82;2.85;;;12.10;74.40;;;10.38;82.81;95062.56;5007857;28;20042;-65
2021/11/01 10:43:01;;;;;;;3.83;2.67;;;12.10;74.90;;;10.35;82.68;95074.31;4976744;28;20041;-65
2021/11/01 10:45:53;;;;;;;6.18;2.78;;;12.10;75.50;;;10.35;83.44;95074.31;4976165;28;20115;-65
2021/11/01 10:56:53;;;;;;;5.47;2.88;;;12.10;76.80;;;10.23;84.08;95069.97;4988522;28;20477;-66
2021/11/01 11:13:08;;;;;;;9.45;4.75;;;12.10;77.50;;;10.14;86.58;95054.38;5007901;28;20072;-66
2021/11/01 11:15:37;;;;;;;9.77;5.38;;;12.10;77.40;;;10.18;87.02;95057.41;4988060;28;20045;-65
2021/11/01 11:18:14;;;;;;;9.55;5.03;;;12.10;77.70;;;10.21;86.92;95043.88;4990927;28;20129;-64
2021/11/01 11:20:55;;;;;;;9.13;4.95;;;12.10;78.00;;;10.21;87.12;95057.03;4988026;28;20049;-65
2021/11/01 11:38:23;;;;;;;5.70;4.07;;;12.10;79.00;;;10.25;89.83;95025.88;4998722;28;20038;-69
2021/11/01 11:41:06;;;;;;;6.55;4.15;;;12.20;78.60;;;10.27;87.78;95019.38;4980878;28;20034;-66
2021/11/01 11:43:50;;;;;;;10.05;7.07;;;12.20;78.30;;;10.31;87.98;95025.81;4992155;28;20539;-68
2021/11/01 11:49:07;;;;;;;9.30;5.57;;;12.40;78.20;;;10.39;89.29;95022.91;4974635;28;20065;-67
2021/11/01 11:51:32;;;;;;;9.02;5.15;;;12.40;78.20;;;10.41;88.60;95015.66;5003534;28;20096;-67
2021/11/01 11:54:00;;;;;;;9.98;6.00;;;12.40;78.20;;;10.42;87.63;95012.00;5005892;28;20034;-67
2021/11/01 11:56:38;;;;;;;8.60;5.90;;;12.30;77.80;;;10.40;88.97;95003.50;5006807;28;20034;-67
2021/11/01 11:59:07;;;;;;;8.95;6.40;;;12.20;78.10;;;10.39;89.02;95009.78;4990746;28;20153;-67
2021/11/01 12:01:36;;;;;;;8.27;5.43;;;12.20;78.30;;;10.36;88.89;95006.78;4986714;28;20030;-68
2021/11/01 12:04:05;;;;;;;7.35;5.05;;;12.20;78.70;;;10.35;89.16;95000.72;4990523;28;20034;-68
2021/11/01 12:06:52;;;;;;;8.23;5.57;;;12.20;79.00;;;10.36;89.47;95007.56;4991025;28;20038;-69
2021/11/01 12:09:30;;;;;;;7.32;5.28;;;12.20;79.00;;;10.32;88.34;94995.88;4977889;28;20514;-68
2021/11/01 12:17:07;;;;;;;8.68;5.20;;;12.10;79.50;;;10.23;90.11;94997.19;4991865;28;20144;-68
2021/11/01 12:19:34;;;;;;;9.70;6.10;;;12.00;80.00;;;10.24;89.61;94988.28;4974313;28;20034;-66
2021/11/01 12:22:12;;;;;;;14.15;10.90;;;12.10;80.50;;;10.23;90.44;94991.91;4987146;28;20041;-66
2021/11/01 12:24:38;;;;;;;10.85;6.97;;;12.10;80.30;;;10.22;90.46;94985.06;4961047;28;20096;-67
2021/11/01 12:27:06;;;;;;;8.65;6.00;;;12.10;80.40;;;10.21;90.48;94993.97;4968454;28;20039;-67
2021/11/01 12:29:34;;;;;;;5.45;3.70;;;12.10;80.70;;;10.18;90.67;94989.06;4972201;28;20027;-68
2021/11/01 12:32:09;;;;;;;5.22;3.45;;;11.90;80.50;;;10.15;91.45;94997.38;4971412;28;20030;-67
2021/11/01 12:34:44;;;;;;;5.43;2.55;;;11.80;80.70;;;10.10;89.78;94992.78;5006280;28;20034;-66
2021/11/01 12:37:17;;;;;;;3.10;1.85;;;11.80;80.20;;;10.08;88.86;95001.91;4990663;28;20062;-67
2021/11/01 12:39:53;;;;;;;3.30;1.90;;;11.80;78.50;;;10.05;88.75;94999.69;4991135;28;20044;-67
2021/11/01 12:58:28;;;;;;;3.60;2.00;;;11.50;78.10;;;9.76;88.05;94995.84;4969524;28;20057;-68
2021/11/01 13:00:55;;;;;;;3.70;2.28;;;11.60;78.40;;;9.78;88.08;94991.97;4975425;28;20034;-66
2021/11/01 13:03:22;;;;;;;4.68;2.60;;;11.60;78.70;;;9.80;88.40;94987.31;4992847;28;20037;-69
2021/11/01 13:05:59;;;;;;;4.55;2.53;;;11.60;78.80;;;9.81;88.67;94991.56;4961629;28;20045;-68
2021/11/01 13:08:30;;;;;;;3.05;1.80;;;11.70;78.70;;;9.81;88.28;94983.69;5015699;23;20090;-66
2021/11/01 13:10:59;;;;;;;4.03;1.80;;;11.60;78.60;;;9.80;89.17;94987.31;4995930;28;20050;-67
2021/11/01 13:13:56;;;;;;;1.58;1.00;;;11.60;79.30;;;9.77;88.75;94985.13;4996436;28;20034;-67
2021/11/01 13:19:14;;;;;;;2.30;1.00;;;11.60;79.40;;;9.78;89.72;94988.53;5012137;28;20037;-68
2021/11/01 13:21:49;;;;;;;2.85;1.05;;;11.60;79.60;;;9.76;89.73;94982.72;4993906;28;20040;-72
2021/11/01 13:24:16;;;;;;;3.08;1.23;;;11.60;79.40;;;9.77;89.67;94977.25;5007518;28;20034;-68
2021/11/01 13:37:40;;;;;;;8.23;6.30;;;11.70;80.00;;;9.87;90.48;94971.50;4996362;28;20127;-67
2021/11/01 13:40:14;;;;;;;7.05;4.63;;;11.80;79.50;;;9.93;90.64;94969.84;4977003;28;20054;-66
2021/11/01 13:42:52;;;;;;;4.80;2.60;;;11.80;80.00;;;9.95;90.25;94970.44;4994711;28;20038;-68
2021/11/01 13:45:20;;;;;;;3.63;2.88;;;11.80;79.70;;;9.93;89.96;94970.66;4975095;28;20037;-67
2021/11/01 13:47:55;;;;;;;15.63;11.00;;;11.80;79.70;;;9.95;91.75;94973.88;5000615;28;20196;-68
2021/11/01 13:50:37;;;;;;;4.88;2.40;;;11.70;80.30;;;9.92;90.93;94965.63;4974369;28;20035;-67
2021/11/01 13:53:10;;;;;;;5.13;1.85;;;11.70;79.70;;;9.89;90.28;94973.94;4982738;28;20030;-68
2021/11/01 14:11:50;;;;;;;5.78;3.55;;;11.40;81.70;;;9.68;91.70;94970.63;5009681;28;20516;-66
2021/11/01 14:30:30;;;;;;;24.20;15.43;;;11.40;82.30;;;9.61;92.83;94955.91;4988198;28;20060;-70
2021/11/01 15:00:20;;;;;;;4.13;3.30;;;11.10;83.10;;;9.41;94.13;94956.03;5007325;28;20041;-67
2021/11/01 15:06:38;;;;;;;4.47;3.08;;;11.20;83.20;;;9.39;94.71;94950.97;4986958;28;20466;-67
2021/11/01 15:14:10;;;;;;;3.03;2.00;;;10.80;82.90;;;9.24;93.24;94954.88;4980169;28;20042;-68
2021/11/01 15:40:36;;;;;;;6.03;3.45;;;10.60;83.20;;;8.97;93.62;94944.50;4992042;28;20200;-68
2021/11/01 16:18:46;;;;;;;5.90;3.97;;;9.90;82.40;;;8.34;92.32;94936.34;4984292;28;20049;-68
2021/11/01 16:21:12;;;;;;;6.43;3.85;;;9.90;82.50;;;8.32;92.91;94940.97;4979289;28;20049;-66
2021/11/01 16:23:38;;;;;;;6.57;2.65;;;9.90;82.60;;;8.28;92.28;94942.38;4962945;28;20132;-69
2021/11/01 16:26:30;;;;;;;3.95;2.28;;;9.80;82.60;;;8.22;92.65;94935.34;4978177;28;20046;-70
2021/11/01 16:29:09;;;;;;;4.38;2.13;;;9.80;83.20;;;8.20;92.97;94940.78;4977304;28;20099;-71
2021/11/01 16:31:52;;;;;;;2.75;1.50;;;9.70;83.20;;;8.16;93.70;94939.59;4996927;28;20474;-69
2021/11/01 16:34:25;;;;;;;2.42;1.40;;;9.70;83.50;;;8.13;93.02;94942.59;5003605;28;20048;-70
2021/11/01 16:39:20;;;;;;;8.52;6.70;;;9.60;83.00;;;8.12;92.95;94955.88;4995328;28;20055;-71
2021/11/01 16:41:47;;;;;;;3.13;1.83;;;9.70;82.90;;;8.08;92.80;94959.91;4978262;28;20041;-71
2021/11/01 16:47:13;;;;;;;1.80;1.20;;;9.60;83.20;;;8.02;93.31;94960.72;4953824;28;20567;-69
2021/11/01 16:49:40;;;;;;;2.75;1.38;;;9.60;83.30;;;7.99;93.02;94970.59;4993225;28;20049;-69
2021/11/01 16:52:27;;;;;;;3.85;1.90;;;9.50;83.50;;;7.96;93.59;94971.00;5000988;28;20431;-69
2021/11/01 16:54:57;;;;;;;2.67;1.63;;;9.50;83.10;;;7.94;93.62;94974.81;4978357;28;20037;-69
2021/11/01 16:57:28;;;;;;;2.85;1.75;;;9.40;83.40;;;7.87;93.75;94969.56;4980332;28;20118;-70
2021/11/01 17:04:58;;;;;;;2.90;1.80;;;9.30;83.40;;;7.81;93.53;94977.41;4994625;28;20049;-69
2021/11/01 17:07:38;;;;;;;1.85;1.25;;;9.30;83.40;;;7.77;93.81;94978.81;4975900;28;20045;-70
2021/11/01 17:26:25;;;;;;;9.30;7.22;;;9.10;83.60;;;7.62;93.97;94971.13;4978804;28;20088;-70
2021/11/01 17:37:09;;;;;;;3.63;2.70;;;9.10;84.00;;;7.53;94.19;94982.78;4983357;28;20045;-69
2021/11/01 18:38:38;;;;;;;5.85;4.35;;;8.40;85.90;;;6.86;96.65;94954.78;4999028;28;20355;-70
2021/11/01 18:41:25;;;;;;;3.63;2.65;;;8.40;86.00;;;6.92;97.11;94959.22;4981542;28;20041;-74
2021/11/01 18:52:10;;;;;;;4.50;2.97;;;8.40;85.80;;;6.81;96.46;94959.78;4981807;28;20076;-70
2021/11/01 18:54:38;;;;;;;7.93;4.35;;;8.30;86.10;;;6.79;96.80;94962.59;4976970;28;20030;-70
2021/11/01 18:57:04;;;;;;;6.63;5.00;;;8.30;86.30;;;6.80;97.40;94966.00;4977293;28;20033;-69